sensor_id;sensor_type;location;lat;lon;timestamp;P1;durP1;ratioP1;P2;durP2;ratioP2
31126;SDS011;17775;57.948;12.514;2022-07-23T00:00:08;0.60;;;0.22;;
31126;SDS011;17775;57.948;12.514;2022-07-23T00:02:37;0.38;;;0.20;;
31126;SDS011;17775;57.948;12.514;2022-07-23T00:05:03;0.25;;;0.25;;
31126;SDS011;17775;57.948;12.514;2022-07-23T00:07:30;0.30;;;0.30;;
31126;SDS011;17775;57.948;12.514;2022-07-23T00:09:56;0.20;;;0.20;;
31126;SDS011;17775;57.948;12.514;2022-07-23T00:12:23;1.90;;;0.40;;
31126;SDS011;17775;57.948;12.514;2022-07-23T00:14:51;1.67;;;0.20;;
31126;SDS011;17775;57.948;12.514;2022-07-23T00:17:17;0.45;;;0.40;;
31126;SDS011;17775;57.948;12.514;2022-07-23T00:19:46;0.47;;;0.35;;
31126;SDS011;17775;57.948;12.514;2022-07-23T00:22:12;0.30;;;0.30;;
31126;SDS011;17775;57.948;12.514;2022-07-23T00:24:38;0.30;;;0.20;;
31126;SDS011;17775;57.948;12.514;2022-07-23T00:27:05;0.20;;;0.20;;
31126;SDS011;17775;57.948;12.514;2022-07-23T00:29:32;0.20;;;0.20;;
31126;SDS011;17775;57.948;12.514;2022-07-23T00:31:58;0.22;;;0.20;;
31126;SDS011;17775;57.948;12.514;2022-07-23T00:34:25;0.80;;;0.30;;
31126;SDS011;17775;57.948;12.514;2022-07-23T00:36:51;1.13;;;0.25;;
31126;SDS011;17775;57.948;12.514;2022-07-23T00:39:20;1.13;;;0.30;;
31126;SDS011;17775;57.948;12.514;2022-07-23T00:41:49;1.13;;;0.40;;
31126;SDS011;17775;57.948;12.514;2022-07-23T00:46:45;0.73;;;0.30;;
31126;SDS011;17775;57.948;12.514;2022-07-23T00:49:12;0.45;;;0.40;;
31126;SDS011;17775;57.948;12.514;2022-07-23T00:51:38;0.70;;;0.60;;
31126;SDS011;17775;57.948;12.514;2022-07-23T00:54:05;0.47;;;0.40;;
31126;SDS011;17775;57.948;12.514;2022-07-23T00:56:31;1.20;;;0.40;;
31126;SDS011;17775;57.948;12.514;2022-07-23T00:58:59;0.88;;;0.45;;
31126;SDS011;17775;57.948;12.514;2022-07-23T01:01:26;0.47;;;0.30;;
31126;SDS011;17775;57.948;12.514;2022-07-23T01:03:53;0.38;;;0.30;;
31126;SDS011;17775;57.948;12.514;2022-07-23T01:06:20;0.77;;;0.40;;
31126;SDS011;17775;57.948;12.514;2022-07-23T01:08:46;0.82;;;0.40;;
31126;SDS011;17775;57.948;12.514;2022-07-23T01:11:12;0.30;;;0.30;;
31126;SDS011;17775;57.948;12.514;2022-07-23T01:13:42;0.45;;;0.40;;
31126;SDS011;17775;57.948;12.514;2022-07-23T01:16:09;0.40;;;0.40;;
31126;SDS011;17775;57.948;12.514;2022-07-23T01:18:36;0.98;;;0.45;;
31126;SDS011;17775;57.948;12.514;2022-07-23T01:21:03;0.60;;;0.40;;
31126;SDS011;17775;57.948;12.514;2022-07-23T01:23:29;0.80;;;0.50;;
31126;SDS011;17775;57.948;12.514;2022-07-23T01:25:56;0.38;;;0.30;;
31126;SDS011;17775;57.948;12.514;2022-07-23T01:28:22;1.55;;;0.47;;
31126;SDS011;17775;57.948;12.514;2022-07-23T01:30:49;0.90;;;0.60;;
31126;SDS011;17775;57.948;12.514;2022-07-23T01:33:15;1.00;;;0.50;;
31126;SDS011;17775;57.948;12.514;2022-07-23T01:35:42;0.57;;;0.40;;
31126;SDS011;17775;57.948;12.514;2022-07-23T01:38:08;0.90;;;0.60;;
31126;SDS011;17775;57.948;12.514;2022-07-23T01:40:34;0.68;;;0.57;;
31126;SDS011;17775;57.948;12.514;2022-07-23T01:43:01;0.60;;;0.40;;
31126;SDS011;17775;57.948;12.514;2022-07-23T01:45:28;1.33;;;0.52;;
31126;SDS011;17775;57.948;12.514;2022-07-23T01:47:54;0.40;;;0.30;;
31126;SDS011;17775;57.948;12.514;2022-07-23T01:50:24;0.77;;;0.57;;
31126;SDS011;17775;57.948;12.514;2022-07-23T01:52:50;1.00;;;0.50;;
31126;SDS011;17775;57.948;12.514;2022-07-23T01:55:16;0.90;;;0.52;;
31126;SDS011;17775;57.948;12.514;2022-07-23T01:57:44;2.22;;;0.65;;
31126;SDS011;17775;57.948;12.514;2022-07-23T02:00:10;2.92;;;0.70;;
31126;SDS011;17775;57.948;12.514;2022-07-23T02:02:37;2.05;;;0.70;;
31126;SDS011;17775;57.948;12.514;2022-07-23T02:05:03;1.50;;;0.65;;
31126;SDS011;17775;57.948;12.514;2022-07-23T02:07:30;0.90;;;0.60;;
31126;SDS011;17775;57.948;12.514;2022-07-23T02:10:00;1.80;;;0.70;;
31126;SDS011;17775;57.948;12.514;2022-07-23T02:12:27;1.52;;;0.80;;
31126;SDS011;17775;57.948;12.514;2022-07-23T02:14:53;3.40;;;0.88;;
31126;SDS011;17775;57.948;12.514;2022-07-23T02:17:19;1.63;;;0.80;;
31126;SDS011;17775;57.948;12.514;2022-07-23T02:19:46;1.48;;;0.70;;
31126;SDS011;17775;57.948;12.514;2022-07-23T02:22:12;3.13;;;0.90;;
31126;SDS011;17775;57.948;12.514;2022-07-23T02:24:39;1.55;;;0.90;;
31126;SDS011;17775;57.948;12.514;2022-07-23T02:27:05;1.00;;;0.70;;
31126;SDS011;17775;57.948;12.514;2022-07-23T02:29:32;2.53;;;0.70;;
31126;SDS011;17775;57.948;12.514;2022-07-23T02:31:58;1.33;;;0.90;;
31126;SDS011;17775;57.948;12.514;2022-07-23T02:34:24;1.27;;;0.82;;
31126;SDS011;17775;57.948;12.514;2022-07-23T02:36:51;1.05;;;0.70;;
31126;SDS011;17775;57.948;12.514;2022-07-23T02:39:18;0.77;;;0.65;;
31126;SDS011;17775;57.948;12.514;2022-07-23T02:41:44;1.00;;;0.75;;
31126;SDS011;17775;57.948;12.514;2022-07-23T02:44:11;3.13;;;0.90;;
31126;SDS011;17775;57.948;12.514;2022-07-23T02:46:37;1.35;;;0.88;;
31126;SDS011;17775;57.948;12.514;2022-07-23T02:49:04;1.50;;;0.60;;
31126;SDS011;17775;57.948;12.514;2022-07-23T02:51:32;1.67;;;0.70;;
31126;SDS011;17775;57.948;12.514;2022-07-23T02:53:58;0.90;;;0.70;;
31126;SDS011;17775;57.948;12.514;2022-07-23T02:56:25;0.80;;;0.60;;
31126;SDS011;17775;57.948;12.514;2022-07-23T02:58:51;1.13;;;0.73;;
31126;SDS011;17775;57.948;12.514;2022-07-23T03:01:18;1.45;;;0.77;;
31126;SDS011;17775;57.948;12.514;2022-07-23T03:03:46;0.77;;;0.47;;
31126;SDS011;17775;57.948;12.514;2022-07-23T03:06:13;0.95;;;0.65;;
31126;SDS011;17775;57.948;12.514;2022-07-23T03:08:39;1.30;;;0.50;;
31126;SDS011;17775;57.948;12.514;2022-07-23T03:11:06;1.70;;;0.80;;
31126;SDS011;17775;57.948;12.514;2022-07-23T03:13:37;0.93;;;0.65;;
31126;SDS011;17775;57.948;12.514;2022-07-23T03:16:04;1.67;;;0.70;;
31126;SDS011;17775;57.948;12.514;2022-07-23T03:18:31;1.17;;;0.70;;
31126;SDS011;17775;57.948;12.514;2022-07-23T03:21:08;1.20;;;0.85;;
31126;SDS011;17775;57.948;12.514;2022-07-23T03:23:34;2.38;;;0.77;;
31126;SDS011;17775;57.948;12.514;2022-07-23T03:26:01;1.38;;;0.80;;
31126;SDS011;17775;57.948;12.514;2022-07-23T03:28:27;1.00;;;0.70;;
31126;SDS011;17775;57.948;12.514;2022-07-23T03:30:54;1.30;;;0.90;;
31126;SDS011;17775;57.948;12.514;2022-07-23T03:33:20;1.25;;;0.70;;
31126;SDS011;17775;57.948;12.514;2022-07-23T03:35:47;1.40;;;0.80;;
31126;SDS011;17775;57.948;12.514;2022-07-23T03:38:14;1.58;;;1.00;;
31126;SDS011;17775;57.948;12.514;2022-07-23T03:40:40;1.05;;;0.80;;
31126;SDS011;17775;57.948;12.514;2022-07-23T03:43:07;0.77;;;0.60;;
31126;SDS011;17775;57.948;12.514;2022-07-23T03:45:33;2.08;;;0.80;;
31126;SDS011;17775;57.948;12.514;2022-07-23T03:48:01;1.92;;;0.93;;
31126;SDS011;17775;57.948;12.514;2022-07-23T03:50:28;1.27;;;0.80;;
31126;SDS011;17775;57.948;12.514;2022-07-23T03:52:54;1.05;;;0.60;;
31126;SDS011;17775;57.948;12.514;2022-07-23T03:55:20;1.52;;;0.80;;
31126;SDS011;17775;57.948;12.514;2022-07-23T03:57:47;1.48;;;0.80;;
31126;SDS011;17775;57.948;12.514;2022-07-23T04:00:13;2.33;;;0.73;;
31126;SDS011;17775;57.948;12.514;2022-07-23T04:02:40;1.40;;;0.80;;
31126;SDS011;17775;57.948;12.514;2022-07-23T04:05:07;1.88;;;0.70;;
31126;SDS011;17775;57.948;12.514;2022-07-23T04:07:33;1.10;;;0.70;;
31126;SDS011;17775;57.948;12.514;2022-07-23T04:10:00;1.42;;;1.00;;
31126;SDS011;17775;57.948;12.514;2022-07-23T04:12:26;1.77;;;0.82;;
31126;SDS011;17775;57.948;12.514;2022-07-23T04:14:55;0.93;;;0.80;;
31126;SDS011;17775;57.948;12.514;2022-07-23T04:17:23;1.85;;;0.80;;
31126;SDS011;17775;57.948;12.514;2022-07-23T04:19:49;1.58;;;0.60;;
31126;SDS011;17775;57.948;12.514;2022-07-23T04:22:15;1.60;;;0.85;;
31126;SDS011;17775;57.948;12.514;2022-07-23T04:24:42;1.10;;;0.80;;
31126;SDS011;17775;57.948;12.514;2022-07-23T04:27:08;2.15;;;0.60;;
31126;SDS011;17775;57.948;12.514;2022-07-23T04:29:35;2.15;;;0.90;;
31126;SDS011;17775;57.948;12.514;2022-07-23T04:32:01;0.80;;;0.52;;
31126;SDS011;17775;57.948;12.514;2022-07-23T04:34:30;2.22;;;0.73;;
31126;SDS011;17775;57.948;12.514;2022-07-23T04:36:56;1.00;;;0.60;;
31126;SDS011;17775;57.948;12.514;2022-07-23T04:39:23;1.83;;;0.70;;
31126;SDS011;17775;57.948;12.514;2022-07-23T04:41:49;0.85;;;0.60;;
31126;SDS011;17775;57.948;12.514;2022-07-23T04:44:16;0.60;;;0.52;;
31126;SDS011;17775;57.948;12.514;2022-07-23T04:46:42;0.60;;;0.50;;
31126;SDS011;17775;57.948;12.514;2022-07-23T04:49:09;2.05;;;1.23;;
31126;SDS011;17775;57.948;12.514;2022-07-23T04:51:36;1.98;;;0.50;;
31126;SDS011;17775;57.948;12.514;2022-07-23T04:54:02;1.55;;;0.45;;
31126;SDS011;17775;57.948;12.514;2022-07-23T04:56:28;2.85;;;0.60;;
31126;SDS011;17775;57.948;12.514;2022-07-23T04:58:55;1.17;;;0.50;;
31126;SDS011;17775;57.948;12.514;2022-07-23T05:01:22;1.20;;;0.70;;
31126;SDS011;17775;57.948;12.514;2022-07-23T05:03:48;0.80;;;0.50;;
31126;SDS011;17775;57.948;12.514;2022-07-23T05:06:15;2.00;;;0.50;;
31126;SDS011;17775;57.948;12.514;2022-07-23T05:08:42;2.65;;;0.50;;
31126;SDS011;17775;57.948;12.514;2022-07-23T05:11:08;0.85;;;0.60;;
31126;SDS011;17775;57.948;12.514;2022-07-23T05:13:34;1.75;;;0.55;;
31126;SDS011;17775;57.948;12.514;2022-07-23T05:16:01;1.08;;;0.47;;
31126;SDS011;17775;57.948;12.514;2022-07-23T05:18:27;0.98;;;0.70;;
31126;SDS011;17775;57.948;12.514;2022-07-23T05:20:54;1.20;;;0.50;;
31126;SDS011;17775;57.948;12.514;2022-07-23T05:23:20;0.63;;;0.43;;
31126;SDS011;17775;57.948;12.514;2022-07-23T05:25:47;1.85;;;0.50;;
31126;SDS011;17775;57.948;12.514;2022-07-23T05:28:13;1.13;;;0.50;;
31126;SDS011;17775;57.948;12.514;2022-07-23T05:30:40;1.00;;;0.40;;
31126;SDS011;17775;57.948;12.514;2022-07-23T05:33:06;0.43;;;0.38;;
31126;SDS011;17775;57.948;12.514;2022-07-23T05:35:34;0.50;;;0.40;;
31126;SDS011;17775;57.948;12.514;2022-07-23T05:38:00;0.80;;;0.40;;
31126;SDS011;17775;57.948;12.514;2022-07-23T05:40:27;0.73;;;0.38;;
31126;SDS011;17775;57.948;12.514;2022-07-23T05:42:53;3.17;;;0.40;;
31126;SDS011;17775;57.948;12.514;2022-07-23T05:45:20;0.60;;;0.47;;
31126;SDS011;17775;57.948;12.514;2022-07-23T05:47:47;0.63;;;0.40;;
31126;SDS011;17775;57.948;12.514;2022-07-23T05:50:13;0.57;;;0.32;;
31126;SDS011;17775;57.948;12.514;2022-07-23T05:52:40;0.98;;;0.50;;
31126;SDS011;17775;57.948;12.514;2022-07-23T05:55:08;0.50;;;0.43;;
31126;SDS011;17775;57.948;12.514;2022-07-23T05:57:35;1.30;;;0.50;;
31126;SDS011;17775;57.948;12.514;2022-07-23T06:00:03;3.00;;;0.50;;
31126;SDS011;17775;57.948;12.514;2022-07-23T06:02:30;0.40;;;0.40;;
31126;SDS011;17775;57.948;12.514;2022-07-23T06:04:57;0.80;;;0.47;;
31126;SDS011;17775;57.948;12.514;2022-07-23T06:07:23;0.75;;;0.30;;
31126;SDS011;17775;57.948;12.514;2022-07-23T06:09:49;0.93;;;0.50;;
31126;SDS011;17775;57.948;12.514;2022-07-23T06:12:16;1.48;;;0.50;;
31126;SDS011;17775;57.948;12.514;2022-07-23T06:14:43;2.15;;;0.65;;
31126;SDS011;17775;57.948;12.514;2022-07-23T06:17:09;0.65;;;0.40;;
31126;SDS011;17775;57.948;12.514;2022-07-23T06:19:36;1.77;;;0.40;;
31126;SDS011;17775;57.948;12.514;2022-07-23T06:22:02;0.77;;;0.38;;
31126;SDS011;17775;57.948;12.514;2022-07-23T06:24:29;2.92;;;0.40;;
31126;SDS011;17775;57.948;12.514;2022-07-23T06:26:55;0.98;;;0.70;;
31126;SDS011;17775;57.948;12.514;2022-07-23T06:29:22;0.30;;;0.30;;
31126;SDS011;17775;57.948;12.514;2022-07-23T06:31:48;0.40;;;0.30;;
31126;SDS011;17775;57.948;12.514;2022-07-23T06:34:15;1.38;;;0.30;;
31126;SDS011;17775;57.948;12.514;2022-07-23T06:36:41;0.60;;;0.55;;
31126;SDS011;17775;57.948;12.514;2022-07-23T06:39:08;1.30;;;0.40;;
31126;SDS011;17775;57.948;12.514;2022-07-23T06:41:34;2.10;;;0.40;;
31126;SDS011;17775;57.948;12.514;2022-07-23T06:44:00;0.93;;;0.30;;
31126;SDS011;17775;57.948;12.514;2022-07-23T06:46:27;0.32;;;0.20;;
31126;SDS011;17775;57.948;12.514;2022-07-23T06:48:53;0.50;;;0.30;;
31126;SDS011;17775;57.948;12.514;2022-07-23T06:51:20;0.95;;;0.50;;
31126;SDS011;17775;57.948;12.514;2022-07-23T06:53:47;0.52;;;0.30;;
31126;SDS011;17775;57.948;12.514;2022-07-23T06:56:13;0.60;;;0.30;;
31126;SDS011;17775;57.948;12.514;2022-07-23T06:58:40;0.40;;;0.20;;
31126;SDS011;17775;57.948;12.514;2022-07-23T07:01:06;0.57;;;0.20;;
31126;SDS011;17775;57.948;12.514;2022-07-23T07:03:33;1.05;;;0.30;;
31126;SDS011;17775;57.948;12.514;2022-07-23T07:05:59;0.22;;;0.22;;
31126;SDS011;17775;57.948;12.514;2022-07-23T07:08:26;0.32;;;0.30;;
31126;SDS011;17775;57.948;12.514;2022-07-23T07:10:52;1.20;;;0.30;;
31126;SDS011;17775;57.948;12.514;2022-07-23T07:13:20;0.80;;;0.40;;
31126;SDS011;17775;57.948;12.514;2022-07-23T07:15:47;0.93;;;0.20;;
31126;SDS011;17775;57.948;12.514;2022-07-23T07:18:14;0.30;;;0.28;;
31126;SDS011;17775;57.948;12.514;2022-07-23T07:20:40;1.13;;;0.40;;
31126;SDS011;17775;57.948;12.514;2022-07-23T07:23:06;0.22;;;0.20;;
31126;SDS011;17775;57.948;12.514;2022-07-23T07:25:33;0.90;;;0.30;;
31126;SDS011;17775;57.948;12.514;2022-07-23T07:28:00;1.58;;;0.40;;
31126;SDS011;17775;57.948;12.514;2022-07-23T07:30:26;0.32;;;0.30;;
31126;SDS011;17775;57.948;12.514;2022-07-23T07:32:59;1.05;;;0.40;;
31126;SDS011;17775;57.948;12.514;2022-07-23T07:35:25;2.55;;;0.40;;
31126;SDS011;17775;57.948;12.514;2022-07-23T07:37:52;0.60;;;0.30;;
31126;SDS011;17775;57.948;12.514;2022-07-23T07:40:19;0.50;;;0.32;;
31126;SDS011;17775;57.948;12.514;2022-07-23T07:42:50;1.02;;;0.43;;
31126;SDS011;17775;57.948;12.514;2022-07-23T07:45:19;1.17;;;0.70;;
31126;SDS011;17775;57.948;12.514;2022-07-23T07:47:46;0.98;;;0.40;;
31126;SDS011;17775;57.948;12.514;2022-07-23T07:50:12;0.30;;;0.28;;
31126;SDS011;17775;57.948;12.514;2022-07-23T07:52:39;2.15;;;0.35;;
31126;SDS011;17775;57.948;12.514;2022-07-23T07:55:06;1.55;;;0.30;;
31126;SDS011;17775;57.948;12.514;2022-07-23T07:57:33;0.60;;;0.30;;
31126;SDS011;17775;57.948;12.514;2022-07-23T07:59:59;0.20;;;0.20;;
31126;SDS011;17775;57.948;12.514;2022-07-23T08:02:44;0.30;;;0.30;;
31126;SDS011;17775;57.948;12.514;2022-07-23T08:05:12;1.08;;;0.30;;
31126;SDS011;17775;57.948;12.514;2022-07-23T08:07:39;0.25;;;0.20;;
31126;SDS011;17775;57.948;12.514;2022-07-23T08:10:06;0.40;;;0.30;;
31126;SDS011;17775;57.948;12.514;2022-07-23T08:12:40;0.32;;;0.30;;
31126;SDS011;17775;57.948;12.514;2022-07-23T08:15:07;0.73;;;0.30;;
31126;SDS011;17775;57.948;12.514;2022-07-23T08:17:39;0.30;;;0.25;;
31126;SDS011;17775;57.948;12.514;2022-07-23T08:20:06;1.35;;;0.50;;
31126;SDS011;17775;57.948;12.514;2022-07-23T08:22:43;1.15;;;0.38;;
31126;SDS011;17775;57.948;12.514;2022-07-23T08:25:10;0.47;;;0.30;;
31126;SDS011;17775;57.948;12.514;2022-07-23T08:27:36;0.73;;;0.35;;
31126;SDS011;17775;57.948;12.514;2022-07-23T08:30:03;0.75;;;0.35;;
31126;SDS011;17775;57.948;12.514;2022-07-23T08:32:33;0.65;;;0.30;;
31126;SDS011;17775;57.948;12.514;2022-07-23T08:35:10;1.13;;;0.43;;
31126;SDS011;17775;57.948;12.514;2022-07-23T08:37:37;0.30;;;0.30;;
31126;SDS011;17775;57.948;12.514;2022-07-23T08:40:03;0.98;;;0.30;;
31126;SDS011;17775;57.948;12.514;2022-07-23T08:42:33;1.17;;;0.30;;
31126;SDS011;17775;57.948;12.514;2022-07-23T08:45:02;0.73;;;0.43;;
31126;SDS011;17775;57.948;12.514;2022-07-23T08:47:29;1.05;;;0.30;;
31126;SDS011;17775;57.948;12.514;2022-07-23T08:49:56;0.93;;;0.30;;
31126;SDS011;17775;57.948;12.514;2022-07-23T08:52:22;1.90;;;0.45;;
31126;SDS011;17775;57.948;12.514;2022-07-23T08:54:52;2.07;;;0.40;;
31126;SDS011;17775;57.948;12.514;2022-07-23T08:57:20;0.55;;;0.30;;
31126;SDS011;17775;57.948;12.514;2022-07-23T08:59:46;1.85;;;0.40;;
31126;SDS011;17775;57.948;12.514;2022-07-23T09:02:12;6.53;;;0.73;;
31126;SDS011;17775;57.948;12.514;2022-07-23T09:04:39;1.15;;;0.40;;
31126;SDS011;17775;57.948;12.514;2022-07-23T09:07:05;1.05;;;0.40;;
31126;SDS011;17775;57.948;12.514;2022-07-23T09:09:32;0.90;;;0.30;;
31126;SDS011;17775;57.948;12.514;2022-07-23T09:12:06;0.68;;;0.40;;
31126;SDS011;17775;57.948;12.514;2022-07-23T09:14:37;0.65;;;0.30;;
31126;SDS011;17775;57.948;12.514;2022-07-23T09:17:11;1.30;;;0.40;;
31126;SDS011;17775;57.948;12.514;2022-07-23T09:19:38;1.17;;;0.52;;
31126;SDS011;17775;57.948;12.514;2022-07-23T09:22:26;1.23;;;0.47;;
31126;SDS011;17775;57.948;12.514;2022-07-23T09:30:23;0.50;;;0.30;;
31126;SDS011;17775;57.948;12.514;2022-07-23T09:33:23;2.58;;;0.52;;
31126;SDS011;17775;57.948;12.514;2022-07-23T09:35:53;0.63;;;0.30;;
31126;SDS011;17775;57.948;12.514;2022-07-23T09:38:20;1.10;;;0.50;;
31126;SDS011;17775;57.948;12.514;2022-07-23T09:40:47;0.50;;;0.30;;
31126;SDS011;17775;57.948;12.514;2022-07-23T09:43:31;0.88;;;0.40;;
31126;SDS011;17775;57.948;12.514;2022-07-23T09:46:16;0.85;;;0.22;;
31126;SDS011;17775;57.948;12.514;2022-07-23T09:48:43;0.85;;;0.40;;
31126;SDS011;17775;57.948;12.514;2022-07-23T09:51:09;1.52;;;0.90;;
31126;SDS011;17775;57.948;12.514;2022-07-23T09:53:38;0.80;;;0.40;;
31126;SDS011;17775;57.948;12.514;2022-07-23T09:56:05;0.65;;;0.40;;
31126;SDS011;17775;57.948;12.514;2022-07-23T09:58:32;0.20;;;0.20;;
31126;SDS011;17775;57.948;12.514;2022-07-23T10:00:58;0.73;;;0.40;;
31126;SDS011;17775;57.948;12.514;2022-07-23T10:03:25;0.65;;;0.40;;
31126;SDS011;17775;57.948;12.514;2022-07-23T10:05:52;1.38;;;0.40;;
31126;SDS011;17775;57.948;12.514;2022-07-23T10:08:19;2.42;;;0.40;;
31126;SDS011;17775;57.948;12.514;2022-07-23T10:10:49;0.60;;;0.50;;
31126;SDS011;17775;57.948;12.514;2022-07-23T10:13:16;1.38;;;0.40;;
31126;SDS011;17775;57.948;12.514;2022-07-23T10:16:01;0.73;;;0.30;;
31126;SDS011;17775;57.948;12.514;2022-07-23T10:18:28;0.68;;;0.43;;
31126;SDS011;17775;57.948;12.514;2022-07-23T10:20:56;0.50;;;0.40;;
31126;SDS011;17775;57.948;12.514;2022-07-23T10:23:40;0.73;;;0.65;;
31126;SDS011;17775;57.948;12.514;2022-07-23T10:26:26;1.15;;;0.40;;
31126;SDS011;17775;57.948;12.514;2022-07-23T10:29:05;1.13;;;0.50;;
31126;SDS011;17775;57.948;12.514;2022-07-23T10:34:29;1.05;;;0.32;;
31126;SDS011;17775;57.948;12.514;2022-07-23T10:39:37;1.15;;;0.40;;
31126;SDS011;17775;57.948;12.514;2022-07-23T10:42:16;0.85;;;0.40;;
31126;SDS011;17775;57.948;12.514;2022-07-23T10:44:43;1.50;;;0.93;;
31126;SDS011;17775;57.948;12.514;2022-07-23T10:47:10;1.98;;;0.50;;
31126;SDS011;17775;57.948;12.514;2022-07-23T10:49:40;2.20;;;0.63;;
31126;SDS011;17775;57.948;12.514;2022-07-23T10:54:44;0.77;;;0.60;;
31126;SDS011;17775;57.948;12.514;2022-07-23T10:57:11;3.05;;;0.70;;
31126;SDS011;17775;57.948;12.514;2022-07-23T11:02:23;3.90;;;0.50;;
31126;SDS011;17775;57.948;12.514;2022-07-23T11:04:51;0.50;;;0.50;;
31126;SDS011;17775;57.948;12.514;2022-07-23T11:07:18;2.42;;;0.73;;
31126;SDS011;17775;57.948;12.514;2022-07-23T11:09:47;1.20;;;0.60;;
31126;SDS011;17775;57.948;12.514;2022-07-23T11:17:28;0.85;;;0.50;;
31126;SDS011;17775;57.948;12.514;2022-07-23T11:25:10;0.70;;;0.55;;
31126;SDS011;17775;57.948;12.514;2022-07-23T11:27:41;1.45;;;0.93;;
31126;SDS011;17775;57.948;12.514;2022-07-23T11:30:08;0.95;;;0.73;;
31126;SDS011;17775;57.948;12.514;2022-07-23T11:32:37;1.15;;;0.80;;
31126;SDS011;17775;57.948;12.514;2022-07-23T11:35:21;2.83;;;0.60;;
31126;SDS011;17775;57.948;12.514;2022-07-23T11:37:48;1.13;;;0.82;;
31126;SDS011;17775;57.948;12.514;2022-07-23T11:40:16;0.77;;;0.60;;
31126;SDS011;17775;57.948;12.514;2022-07-23T11:42:53;0.70;;;0.60;;
31126;SDS011;17775;57.948;12.514;2022-07-23T11:45:20;0.77;;;0.60;;
31126;SDS011;17775;57.948;12.514;2022-07-23T11:47:47;0.82;;;0.68;;
31126;SDS011;17775;57.948;12.514;2022-07-23T11:50:13;3.97;;;1.05;;
31126;SDS011;17775;57.948;12.514;2022-07-23T11:52:40;1.70;;;0.80;;
31126;SDS011;17775;57.948;12.514;2022-07-23T11:55:07;1.17;;;0.98;;
31126;SDS011;17775;57.948;12.514;2022-07-23T11:57:35;1.75;;;0.98;;
31126;SDS011;17775;57.948;12.514;2022-07-23T12:00:09;0.90;;;0.77;;
31126;SDS011;17775;57.948;12.514;2022-07-23T12:02:41;1.20;;;0.90;;
31126;SDS011;17775;57.948;12.514;2022-07-23T12:05:16;0.60;;;0.60;;
31126;SDS011;17775;57.948;12.514;2022-07-23T12:07:44;0.75;;;0.70;;
31126;SDS011;17775;57.948;12.514;2022-07-23T12:12:38;0.73;;;0.65;;
31126;SDS011;17775;57.948;12.514;2022-07-23T12:15:05;1.63;;;1.33;;
31126;SDS011;17775;57.948;12.514;2022-07-23T12:17:32;0.88;;;0.75;;
31126;SDS011;17775;57.948;12.514;2022-07-23T12:20:00;2.05;;;0.70;;
31126;SDS011;17775;57.948;12.514;2022-07-23T12:22:35;0.95;;;0.70;;
31126;SDS011;17775;57.948;12.514;2022-07-23T12:27:32;1.67;;;0.70;;
31126;SDS011;17775;57.948;12.514;2022-07-23T12:29:58;1.33;;;0.82;;
31126;SDS011;17775;57.948;12.514;2022-07-23T12:32:28;1.52;;;0.80;;
31126;SDS011;17775;57.948;12.514;2022-07-23T12:35:29;2.27;;;1.00;;
31126;SDS011;17775;57.948;12.514;2022-07-23T12:37:49;1.45;;;1.23;;
31126;SDS011;17775;57.948;12.514;2022-07-23T12:40:23;1.00;;;0.90;;
31126;SDS011;17775;57.948;12.514;2022-07-23T12:42:52;1.88;;;0.80;;
31126;SDS011;17775;57.948;12.514;2022-07-23T12:45:19;1.20;;;0.93;;
31126;SDS011;17775;57.948;12.514;2022-07-23T12:48:02;2.22;;;1.10;;
31126;SDS011;17775;57.948;12.514;2022-07-23T12:50:40;2.55;;;1.10;;
31126;SDS011;17775;57.948;12.514;2022-07-23T12:53:18;1.10;;;0.95;;
31126;SDS011;17775;57.948;12.514;2022-07-23T12:56:08;2.33;;;1.00;;
31126;SDS011;17775;57.948;12.514;2022-07-23T13:01:14;1.70;;;0.90;;
31126;SDS011;17775;57.948;12.514;2022-07-23T13:06:37;1.25;;;0.90;;
31126;SDS011;17775;57.948;12.514;2022-07-23T13:09:07;1.10;;;0.93;;
31126;SDS011;17775;57.948;12.514;2022-07-23T13:11:37;1.85;;;0.90;;
31126;SDS011;17775;57.948;12.514;2022-07-23T13:14:04;2.35;;;2.13;;
31126;SDS011;17775;57.948;12.514;2022-07-23T13:16:34;1.25;;;1.00;;
31126;SDS011;17775;57.948;12.514;2022-07-23T13:19:01;3.40;;;1.20;;
31126;SDS011;17775;57.948;12.514;2022-07-23T13:21:29;2.08;;;1.02;;
31126;SDS011;17775;57.948;12.514;2022-07-23T13:23:56;1.58;;;1.30;;
31126;SDS011;17775;57.948;12.514;2022-07-23T13:26:22;1.25;;;1.10;;
31126;SDS011;17775;57.948;12.514;2022-07-23T13:28:49;2.10;;;1.10;;
31126;SDS011;17775;57.948;12.514;2022-07-23T13:31:16;1.45;;;1.10;;
31126;SDS011;17775;57.948;12.514;2022-07-23T13:33:43;1.92;;;1.10;;
31126;SDS011;17775;57.948;12.514;2022-07-23T13:36:10;1.98;;;1.27;;
31126;SDS011;17775;57.948;12.514;2022-07-23T13:38:38;0.95;;;0.85;;
31126;SDS011;17775;57.948;12.514;2022-07-23T13:41:05;1.30;;;1.02;;
31126;SDS011;17775;57.948;12.514;2022-07-23T13:43:37;1.38;;;1.13;;
31126;SDS011;17775;57.948;12.514;2022-07-23T13:46:04;1.30;;;1.15;;
31126;SDS011;17775;57.948;12.514;2022-07-23T13:48:31;2.78;;;1.10;;
31126;SDS011;17775;57.948;12.514;2022-07-23T13:50:58;1.42;;;1.20;;
31126;SDS011;17775;57.948;12.514;2022-07-23T13:53:26;1.40;;;1.10;;
31126;SDS011;17775;57.948;12.514;2022-07-23T13:55:53;1.40;;;1.15;;
31126;SDS011;17775;57.948;12.514;2022-07-23T13:58:19;1.63;;;1.25;;
31126;SDS011;17775;57.948;12.514;2022-07-23T14:00:51;1.20;;;1.00;;
31126;SDS011;17775;57.948;12.514;2022-07-23T14:03:20;1.42;;;1.00;;
31126;SDS011;17775;57.948;12.514;2022-07-23T14:05:49;2.58;;;1.23;;
31126;SDS011;17775;57.948;12.514;2022-07-23T14:08:17;2.28;;;1.00;;
31126;SDS011;17775;57.948;12.514;2022-07-23T14:10:47;1.47;;;1.13;;
31126;SDS011;17775;57.948;12.514;2022-07-23T14:13:14;2.95;;;1.00;;
31126;SDS011;17775;57.948;12.514;2022-07-23T14:15:41;3.17;;;1.17;;
31126;SDS011;17775;57.948;12.514;2022-07-23T14:18:08;2.80;;;1.02;;
31126;SDS011;17775;57.948;12.514;2022-07-23T14:20:35;1.20;;;1.00;;
31126;SDS011;17775;57.948;12.514;2022-07-23T14:23:02;1.25;;;1.02;;
31126;SDS011;17775;57.948;12.514;2022-07-23T14:25:31;1.60;;;1.20;;
31126;SDS011;17775;57.948;12.514;2022-07-23T14:27:57;7.25;;;1.90;;
31126;SDS011;17775;57.948;12.514;2022-07-23T14:30:24;1.33;;;1.02;;
31126;SDS011;17775;57.948;12.514;2022-07-23T14:32:57;2.45;;;1.10;;
31126;SDS011;17775;57.948;12.514;2022-07-23T14:35:23;1.23;;;1.13;;
31126;SDS011;17775;57.948;12.514;2022-07-23T14:37:50;2.35;;;1.30;;
31126;SDS011;17775;57.948;12.514;2022-07-23T14:40:16;1.40;;;1.17;;
31126;SDS011;17775;57.948;12.514;2022-07-23T14:42:48;1.35;;;1.08;;
31126;SDS011;17775;57.948;12.514;2022-07-23T14:45:15;1.20;;;1.10;;
31126;SDS011;17775;57.948;12.514;2022-07-23T14:47:41;1.35;;;1.20;;
31126;SDS011;17775;57.948;12.514;2022-07-23T14:50:12;1.42;;;1.23;;
31126;SDS011;17775;57.948;12.514;2022-07-23T14:52:39;1.45;;;1.13;;
31126;SDS011;17775;57.948;12.514;2022-07-23T14:55:05;1.45;;;1.20;;
31126;SDS011;17775;57.948;12.514;2022-07-23T14:57:32;1.45;;;1.30;;
31126;SDS011;17775;57.948;12.514;2022-07-23T14:59:59;2.67;;;1.45;;
31126;SDS011;17775;57.948;12.514;2022-07-23T15:02:26;1.73;;;1.27;;
31126;SDS011;17775;57.948;12.514;2022-07-23T15:04:52;2.08;;;1.40;;
31126;SDS011;17775;57.948;12.514;2022-07-23T15:07:22;1.30;;;1.20;;
31126;SDS011;17775;57.948;12.514;2022-07-23T15:09:52;5.05;;;1.45;;
31126;SDS011;17775;57.948;12.514;2022-07-23T15:12:19;1.40;;;1.20;;
31126;SDS011;17775;57.948;12.514;2022-07-23T15:14:47;1.73;;;1.40;;
31126;SDS011;17775;57.948;12.514;2022-07-23T15:17:13;1.92;;;1.10;;